Cortez, Colorado
Current Conditions -  °F | °C
As of 12:53 PM on Friday 31 Oct 2014 (Local Time) from KCEZ Reporting Station
Clear Clear  
Wind Chill: 66°   Ceiling: Unl
Heat Index: 66°   Visibility: 10mi
Dew Point: 25°   Wind: 12mph
Humidity: 21%   Direction: 150°SSE
Pressure: 30.24"   Gusts: NA
Location:  37.35°N, 108.55°W
Report Text: KCEZ 311853Z AUTO 15010KT 10SM CLR 19/M04 A3024 RMK AO2 SLP206 T01891039
Loading
Personal Weather Stations






























Interactive Weather Map
Tropical Storm Tracking
New forecast layout! Learn more

10-Day Weather Forecast

Advertisements
Track Severe Weather on mobile